sensor_id;sensor_type;location;lat;lon;timestamp;pressure;altitude;pressure_sealevel;temperature;humidity
6096;BME280;25081;42.698;23.298;2023-04-24T00:00:11;95016.66;;;11.30;61.32
6096;BME280;25081;42.698;23.298;2023-04-24T00:02:22;95016.42;;;11.31;61.41
6096;BME280;25081;42.698;23.298;2023-04-24T00:04:32;95005.25;;;11.23;61.25
6096;BME280;25081;42.698;23.298;2023-04-24T00:06:43;95004.55;;;11.27;61.88
6096;BME280;25081;42.698;23.298;2023-04-24T00:08:53;95001.59;;;11.26;61.90
6096;BME280;25081;42.698;23.298;2023-04-24T00:11:04;95000.67;;;11.21;61.96
6096;BME280;25081;42.698;23.298;2023-04-24T00:13:14;94998.97;;;11.17;62.10
6096;BME280;25081;42.698;23.298;2023-04-24T00:15:25;94988.70;;;11.11;62.04
6096;BME280;25081;42.698;23.298;2023-04-24T00:17:36;94989.60;;;11.05;61.82
6096;BME280;25081;42.698;23.298;2023-04-24T00:19:46;94999.41;;;11.02;62.09
6096;BME280;25081;42.698;23.298;2023-04-24T00:21:57;94996.97;;;11.01;62.61
6096;BME280;25081;42.698;23.298;2023-04-24T00:24:07;94988.23;;;10.94;62.14
6096;BME280;25081;42.698;23.298;2023-04-24T00:26:19;94992.18;;;10.91;63.02
6096;BME280;25081;42.698;23.298;2023-04-24T00:28:29;94999.05;;;10.89;63.45
6096;BME280;25081;42.698;23.298;2023-04-24T00:30:40;94997.52;;;10.91;63.06
6096;BME280;25081;42.698;23.298;2023-04-24T00:32:51;94993.86;;;10.95;63.06
6096;BME280;25081;42.698;23.298;2023-04-24T00:35:02;94994.50;;;10.99;63.32
6096;BME280;25081;42.698;23.298;2023-04-24T00:37:12;94996.84;;;11.07;63.58
6096;BME280;25081;42.698;23.298;2023-04-24T00:39:23;95004.19;;;11.12;63.41
6096;BME280;25081;42.698;23.298;2023-04-24T00:41:33;94994.67;;;11.16;63.38
6096;BME280;25081;42.698;23.298;2023-04-24T00:43:44;94996.20;;;11.24;63.25
6096;BME280;25081;42.698;23.298;2023-04-24T00:45:54;95000.67;;;11.21;63.09
6096;BME280;25081;42.698;23.298;2023-04-24T00:48:05;94992.00;;;11.16;62.17
6096;BME280;25081;42.698;23.298;2023-04-24T00:50:16;94987.45;;;11.05;61.38
6096;BME280;25081;42.698;23.298;2023-04-24T00:52:26;94983.83;;;10.99;61.18
6096;BME280;25081;42.698;23.298;2023-04-24T00:54:37;94985.40;;;10.98;60.44
6096;BME280;25081;42.698;23.298;2023-04-24T00:56:47;94986.33;;;10.92;60.58
6096;BME280;25081;42.698;23.298;2023-04-24T00:58:58;94987.83;;;10.99;61.18
6096;BME280;25081;42.698;23.298;2023-04-24T01:01:08;94983.75;;;11.06;61.63
6096;BME280;25081;42.698;23.298;2023-04-24T01:03:19;94989.22;;;11.11;61.95
6096;BME280;25081;42.698;23.298;2023-04-24T01:05:29;94987.42;;;11.14;61.66
6096;BME280;25081;42.698;23.298;2023-04-24T01:07:43;94993.63;;;11.17;62.15
6096;BME280;25081;42.698;23.298;2023-04-24T01:09:53;94992.67;;;11.21;63.08
6096;BME280;25081;42.698;23.298;2023-04-24T01:12:03;94984.00;;;11.16;65.25
6096;BME280;25081;42.698;23.298;2023-04-24T01:14:14;94976.50;;;11.04;64.88
6096;BME280;25081;42.698;23.298;2023-04-24T01:16:24;94963.97;;;11.04;66.34
6096;BME280;25081;42.698;23.298;2023-04-24T01:18:35;94964.23;;;10.94;63.78
6096;BME280;25081;42.698;23.298;2023-04-24T01:20:45;94971.77;;;10.97;65.57
6096;BME280;25081;42.698;23.298;2023-04-24T01:22:56;94961.83;;;10.83;65.00
6096;BME280;25081;42.698;23.298;2023-04-24T01:25:08;94961.47;;;10.70;64.95
6096;BME280;25081;42.698;23.298;2023-04-24T01:27:19;94966.41;;;10.55;64.68
6096;BME280;25081;42.698;23.298;2023-04-24T01:29:29;94964.50;;;10.53;65.02
6096;BME280;25081;42.698;23.298;2023-04-24T01:31:40;94971.82;;;10.48;64.96
6096;BME280;25081;42.698;23.298;2023-04-24T01:33:50;94969.38;;;10.47;65.67
6096;BME280;25081;42.698;23.298;2023-04-24T01:36:01;94963.19;;;10.35;64.93
6096;BME280;25081;42.698;23.298;2023-04-24T01:38:12;94956.66;;;10.30;65.18
6096;BME280;25081;42.698;23.298;2023-04-24T01:40:23;94964.86;;;10.20;65.92
6096;BME280;25081;42.698;23.298;2023-04-24T01:42:33;94956.52;;;10.07;65.54
6096;BME280;25081;42.698;23.298;2023-04-24T01:44:44;94964.50;;;10.07;66.01
6096;BME280;25081;42.698;23.298;2023-04-24T01:46:55;94957.33;;;9.98;66.68
6096;BME280;25081;42.698;23.298;2023-04-24T01:49:06;94969.14;;;9.93;66.93
6096;BME280;25081;42.698;23.298;2023-04-24T01:51:17;94959.69;;;9.79;67.48
6096;BME280;25081;42.698;23.298;2023-04-24T01:53:27;94955.11;;;9.86;66.91
6096;BME280;25081;42.698;23.298;2023-04-24T01:55:37;94952.22;;;9.79;67.34
6096;BME280;25081;42.698;23.298;2023-04-24T01:57:48;94953.62;;;9.81;67.21
6096;BME280;25081;42.698;23.298;2023-04-24T01:59:59;94954.82;;;9.85;67.57
6096;BME280;25081;42.698;23.298;2023-04-24T02:02:09;94949.50;;;9.94;67.75
6096;BME280;25081;42.698;23.298;2023-04-24T02:04:20;94953.91;;;9.91;67.39
6096;BME280;25081;42.698;23.298;2023-04-24T02:06:30;94955.54;;;9.92;67.34
6096;BME280;25081;42.698;23.298;2023-04-24T02:08:41;94950.60;;;9.87;67.52
6096;BME280;25081;42.698;23.298;2023-04-24T02:10:52;94954.14;;;9.90;67.46
6096;BME280;25081;42.698;23.298;2023-04-24T02:13:03;94950.95;;;9.81;67.68
6096;BME280;25081;42.698;23.298;2023-04-24T02:15:13;94945.79;;;9.77;67.81
6096;BME280;25081;42.698;23.298;2023-04-24T02:17:24;94950.66;;;9.80;67.37
6096;BME280;25081;42.698;23.298;2023-04-24T02:19:35;94951.02;;;9.84;67.75
6096;BME280;25081;42.698;23.298;2023-04-24T02:21:45;94949.11;;;9.82;68.19
6096;BME280;25081;42.698;23.298;2023-04-24T02:23:56;94955.92;;;9.87;68.17
6096;BME280;25081;42.698;23.298;2023-04-24T02:26:07;94947.84;;;9.84;68.21
6096;BME280;25081;42.698;23.298;2023-04-24T02:28:18;94948.98;;;9.86;68.13
6096;BME280;25081;42.698;23.298;2023-04-24T02:30:28;94949.63;;;9.90;68.15
6096;BME280;25081;42.698;23.298;2023-04-24T02:32:39;94945.17;;;9.84;68.70
6096;BME280;25081;42.698;23.298;2023-04-24T02:34:50;94945.50;;;9.76;69.19
6096;BME280;25081;42.698;23.298;2023-04-24T02:37:00;94937.41;;;9.73;68.87
6096;BME280;25081;42.698;23.298;2023-04-24T02:39:11;94928.03;;;9.71;68.63
6096;BME280;25081;42.698;23.298;2023-04-24T02:41:21;94927.51;;;9.71;68.69
6096;BME280;25081;42.698;23.298;2023-04-24T02:43:32;94919.39;;;9.75;68.68
6096;BME280;25081;42.698;23.298;2023-04-24T02:45:43;94923.58;;;9.74;68.42
6096;BME280;25081;42.698;23.298;2023-04-24T02:47:53;94920.91;;;9.65;68.01
6096;BME280;25081;42.698;23.298;2023-04-24T02:50:05;94917.25;;;9.66;67.74
6096;BME280;25081;42.698;23.298;2023-04-24T02:52:16;94919.52;;;9.62;68.03
6096;BME280;25081;42.698;23.298;2023-04-24T02:54:27;94916.27;;;9.60;68.05
6096;BME280;25081;42.698;23.298;2023-04-24T02:56:37;94921.02;;;9.67;68.49
6096;BME280;25081;42.698;23.298;2023-04-24T02:58:48;94929.34;;;9.62;69.21
6096;BME280;25081;42.698;23.298;2023-04-24T03:00:58;94930.15;;;9.53;69.12
6096;BME280;25081;42.698;23.298;2023-04-24T03:03:09;94925.56;;;9.51;69.08
6096;BME280;25081;42.698;23.298;2023-04-24T03:05:19;94930.38;;;9.52;69.61
6096;BME280;25081;42.698;23.298;2023-04-24T03:07:30;94926.09;;;9.51;70.12
6096;BME280;25081;42.698;23.298;2023-04-24T03:09:41;94933.10;;;9.54;70.59
6096;BME280;25081;42.698;23.298;2023-04-24T03:11:52;94933.10;;;9.54;70.90
6096;BME280;25081;42.698;23.298;2023-04-24T03:14:02;94928.75;;;9.51;71.24
6096;BME280;25081;42.698;23.298;2023-04-24T03:16:13;94933.90;;;9.45;71.52
6096;BME280;25081;42.698;23.298;2023-04-24T03:18:23;94934.13;;;9.44;71.76
6096;BME280;25081;42.698;23.298;2023-04-24T03:20:34;94932.80;;;9.44;71.94
6096;BME280;25081;42.698;23.298;2023-04-24T03:22:44;94938.27;;;9.40;72.14
6096;BME280;25081;42.698;23.298;2023-04-24T03:24:55;94933.23;;;9.41;72.37
6096;BME280;25081;42.698;23.298;2023-04-24T03:27:05;94940.34;;;9.38;73.04
6096;BME280;25081;42.698;23.298;2023-04-24T03:29:16;94933.17;;;9.38;72.95
6096;BME280;25081;42.698;23.298;2023-04-24T03:31:26;94938.02;;;9.32;73.35
6096;BME280;25081;42.698;23.298;2023-04-24T03:33:38;94938.27;;;9.40;73.57
6096;BME280;25081;42.698;23.298;2023-04-24T03:35:48;94937.70;;;9.47;73.38
6096;BME280;25081;42.698;23.298;2023-04-24T03:37:59;94940.15;;;9.58;73.03
6096;BME280;25081;42.698;23.298;2023-04-24T03:40:11;94945.58;;;9.44;73.34
6096;BME280;25081;42.698;23.298;2023-04-24T03:42:21;94937.25;;;9.50;73.27
6096;BME280;25081;42.698;23.298;2023-04-24T03:44:32;94935.64;;;9.58;73.02
6096;BME280;25081;42.698;23.298;2023-04-24T03:46:42;94931.20;;;9.61;73.18
6096;BME280;25081;42.698;23.298;2023-04-24T03:48:53;94938.58;;;9.50;74.22
6096;BME280;25081;42.698;23.298;2023-04-24T03:51:04;94934.14;;;9.53;74.54
6096;BME280;25081;42.698;23.298;2023-04-24T03:53:14;94935.62;;;9.49;74.56
6096;BME280;25081;42.698;23.298;2023-04-24T03:55:25;94938.13;;;9.53;74.60
6096;BME280;25081;42.698;23.298;2023-04-24T03:57:36;94929.88;;;9.70;74.36
6096;BME280;25081;42.698;23.298;2023-04-24T03:59:46;94938.97;;;9.72;73.85
6096;BME280;25081;42.698;23.298;2023-04-24T04:01:57;94932.06;;;9.55;74.44
6096;BME280;25081;42.698;23.298;2023-04-24T04:04:07;94931.94;;;9.59;74.39
6096;BME280;25081;42.698;23.298;2023-04-24T04:06:18;94933.05;;;9.61;74.16
6096;BME280;25081;42.698;23.298;2023-04-24T04:08:28;94936.58;;;9.55;74.09
6096;BME280;25081;42.698;23.298;2023-04-24T04:10:39;94937.56;;;9.60;74.24
6096;BME280;25081;42.698;23.298;2023-04-24T04:12:49;94937.52;;;9.85;73.78
6096;BME280;25081;42.698;23.298;2023-04-24T04:15:00;94932.61;;;10.00;72.86
6096;BME280;25081;42.698;23.298;2023-04-24T04:17:10;94928.09;;;10.01;72.59
6096;BME280;25081;42.698;23.298;2023-04-24T04:19:21;94929.66;;;9.72;73.21
6096;BME280;25081;42.698;23.298;2023-04-24T04:21:31;94932.70;;;9.75;73.46
6096;BME280;25081;42.698;23.298;2023-04-24T04:23:42;94929.30;;;10.05;72.35
6096;BME280;25081;42.698;23.298;2023-04-24T04:25:52;94932.37;;;10.11;71.92
6096;BME280;25081;42.698;23.298;2023-04-24T04:28:03;94938.41;;;10.25;71.93
6096;BME280;25081;42.698;23.298;2023-04-24T04:30:14;94944.38;;;10.29;71.19
6096;BME280;25081;42.698;23.298;2023-04-24T04:32:24;94948.00;;;10.44;70.86
6096;BME280;25081;42.698;23.298;2023-04-24T04:34:35;94941.50;;;10.61;69.75
6096;BME280;25081;42.698;23.298;2023-04-24T04:36:45;94946.47;;;10.87;69.00
6096;BME280;25081;42.698;23.298;2023-04-24T04:38:56;94946.05;;;11.02;67.72
6096;BME280;25081;42.698;23.298;2023-04-24T04:41:07;94951.70;;;10.94;67.06
6096;BME280;25081;42.698;23.298;2023-04-24T04:43:17;94955.80;;;10.87;63.74
6096;BME280;25081;42.698;23.298;2023-04-24T04:45:28;94951.77;;;10.97;63.34
6096;BME280;25081;42.698;23.298;2023-04-24T04:47:39;94954.38;;;10.94;63.65
6096;BME280;25081;42.698;23.298;2023-04-24T04:49:49;94958.38;;;10.94;61.98
6096;BME280;25081;42.698;23.298;2023-04-24T04:52:01;94957.33;;;10.95;61.06
6096;BME280;25081;42.698;23.298;2023-04-24T04:54:11;94965.21;;;11.11;61.11
6096;BME280;25081;42.698;23.298;2023-04-24T04:56:22;94962.84;;;11.24;60.24
6096;BME280;25081;42.698;23.298;2023-04-24T04:58:32;94962.58;;;11.02;60.63
6096;BME280;25081;42.698;23.298;2023-04-24T05:00:43;94959.53;;;10.98;60.55
6096;BME280;25081;42.698;23.298;2023-04-24T05:02:53;94964.60;;;11.09;60.53
6096;BME280;25081;42.698;23.298;2023-04-24T05:05:05;94968.26;;;11.05;60.32
6096;BME280;25081;42.698;23.298;2023-04-24T05:07:15;94968.69;;;11.11;60.72
6096;BME280;25081;42.698;23.298;2023-04-24T05:09:26;94964.14;;;11.33;59.77
6096;BME280;25081;42.698;23.298;2023-04-24T05:11:37;94964.52;;;11.15;60.15
6096;BME280;25081;42.698;23.298;2023-04-24T05:13:48;94969.69;;;10.99;60.58
6096;BME280;25081;42.698;23.298;2023-04-24T05:15:58;94967.28;;;10.88;61.38
6096;BME280;25081;42.698;23.298;2023-04-24T05:18:09;94968.41;;;11.10;61.28
6096;BME280;25081;42.698;23.298;2023-04-24T05:20:19;94965.05;;;11.27;60.51
6096;BME280;25081;42.698;23.298;2023-04-24T05:22:30;94964.40;;;11.10;60.23
6096;BME280;25081;42.698;23.298;2023-04-24T05:24:40;94956.76;;;11.26;60.11
6096;BME280;25081;42.698;23.298;2023-04-24T05:26:51;94963.83;;;10.99;61.28
6096;BME280;25081;42.698;23.298;2023-04-24T05:29:02;94967.19;;;10.74;61.31
6096;BME280;25081;42.698;23.298;2023-04-24T05:31:12;94968.91;;;10.59;62.23
6096;BME280;25081;42.698;23.298;2023-04-24T05:33:23;94963.91;;;10.81;62.08
6096;BME280;25081;42.698;23.298;2023-04-24T05:35:34;94957.56;;;11.26;61.17
6096;BME280;25081;42.698;23.298;2023-04-24T05:37:44;94960.53;;;11.83;59.38
6096;BME280;25081;42.698;23.298;2023-04-24T05:39:55;94955.22;;;12.09;58.61
6096;BME280;25081;42.698;23.298;2023-04-24T05:42:06;94962.48;;;12.51;57.47
6096;BME280;25081;42.698;23.298;2023-04-24T05:44:16;94965.03;;;12.58;56.24
6096;BME280;25081;42.698;23.298;2023-04-24T05:46:27;94965.33;;;12.33;56.42
6096;BME280;25081;42.698;23.298;2023-04-24T05:48:37;94970.87;;;12.43;56.46
6096;BME280;25081;42.698;23.298;2023-04-24T05:50:48;94971.02;;;12.77;55.88
6096;BME280;25081;42.698;23.298;2023-04-24T05:52:59;94970.42;;;12.89;55.28
6096;BME280;25081;42.698;23.298;2023-04-24T05:55:10;94975.05;;;12.51;56.46
6096;BME280;25081;42.698;23.298;2023-04-24T05:57:21;94965.81;;;12.84;56.25
6096;BME280;25081;42.698;23.298;2023-04-24T05:59:31;94959.62;;;13.43;54.17
6096;BME280;25081;42.698;23.298;2023-04-24T06:01:42;94966.98;;;12.63;55.81
6096;BME280;25081;42.698;23.298;2023-04-24T06:03:53;94965.08;;;13.03;55.46
6096;BME280;25081;42.698;23.298;2023-04-24T06:06:04;94955.73;;;14.67;51.79
6096;BME280;25081;42.698;23.298;2023-04-24T06:08:14;94957.13;;;15.58;48.74
6096;BME280;25081;42.698;23.298;2023-04-24T06:10:25;94954.20;;;16.44;46.42
6096;BME280;25081;42.698;23.298;2023-04-24T06:12:36;94953.92;;;17.19;45.15
6096;BME280;25081;42.698;23.298;2023-04-24T06:14:47;94956.37;;;18.07;42.40
6096;BME280;25081;42.698;23.298;2023-04-24T06:16:57;94956.37;;;18.07;42.40
6096;BME280;25081;42.698;23.298;2023-04-24T06:19:08;94945.72;;;19.10;41.54
6096;BME280;25081;42.698;23.298;2023-04-24T06:21:18;94944.61;;;19.92;38.50
6096;BME280;25081;42.698;23.298;2023-04-24T06:23:29;94944.55;;;20.77;37.64
6096;BME280;25081;42.698;23.298;2023-04-24T06:25:40;94941.77;;;21.60;35.60
6096;BME280;25081;42.698;23.298;2023-04-24T06:27:51;94954.78;;;21.44;35.74
6096;BME280;25081;42.698;23.298;2023-04-24T06:30:01;94947.38;;;20.88;35.89
6096;BME280;25081;42.698;23.298;2023-04-24T06:32:12;94951.88;;;20.74;36.42
6096;BME280;25081;42.698;23.298;2023-04-24T06:34:22;94949.02;;;19.83;37.94
6096;BME280;25081;42.698;23.298;2023-04-24T06:36:33;94947.84;;;19.19;39.22
6096;BME280;25081;42.698;23.298;2023-04-24T06:38:44;94953.87;;;19.47;39.29
6096;BME280;25081;42.698;23.298;2023-04-24T06:40:55;94952.21;;;19.90;38.53
6096;BME280;25081;42.698;23.298;2023-04-24T06:43:05;94954.11;;;20.19;37.79
6096;BME280;25081;42.698;23.298;2023-04-24T06:45:16;94953.23;;;20.74;36.81
6096;BME280;25081;42.698;23.298;2023-04-24T06:47:27;94952.20;;;20.48;37.15
6096;BME280;25081;42.698;23.298;2023-04-24T06:49:38;94970.86;;;16.99;43.15
6096;BME280;25081;42.698;23.298;2023-04-24T06:51:49;94962.69;;;16.73;44.98
6096;BME280;25081;42.698;23.298;2023-04-24T06:54:00;94951.47;;;18.99;41.61
6096;BME280;25081;42.698;23.298;2023-04-24T06:56:10;94952.06;;;20.32;38.13
6096;BME280;25081;42.698;23.298;2023-04-24T06:58:21;94948.53;;;18.95;40.25
6096;BME280;25081;42.698;23.298;2023-04-24T07:00:31;94953.11;;;18.17;42.60
6096;BME280;25081;42.698;23.298;2023-04-24T07:02:42;94948.27;;;19.36;41.41
6096;BME280;25081;42.698;23.298;2023-04-24T07:04:53;94939.52;;;20.68;37.63
6096;BME280;25081;42.698;23.298;2023-04-24T07:07:03;94936.89;;;20.81;36.78
6096;BME280;25081;42.698;23.298;2023-04-24T07:09:14;94944.23;;;18.92;40.51
6096;BME280;25081;42.698;23.298;2023-04-24T07:11:24;94934.87;;;19.18;40.72
6096;BME280;25081;42.698;23.298;2023-04-24T07:13:35;94931.80;;;20.77;38.09
6096;BME280;25081;42.698;23.298;2023-04-24T07:15:46;94931.51;;;22.06;35.53
6096;BME280;25081;42.698;23.298;2023-04-24T07:17:56;94931.16;;;22.97;33.39
6096;BME280;25081;42.698;23.298;2023-04-24T07:20:09;94927.96;;;23.42;32.55
6096;BME280;25081;42.698;23.298;2023-04-24T07:22:19;94917.09;;;24.10;31.41
6096;BME280;25081;42.698;23.298;2023-04-24T07:24:30;94924.70;;;24.10;32.03
6096;BME280;25081;42.698;23.298;2023-04-24T07:26:41;94918.67;;;24.22;31.72
6096;BME280;25081;42.698;23.298;2023-04-24T07:28:51;94917.37;;;23.77;31.27
6096;BME280;25081;42.698;23.298;2023-04-24T07:31:02;94914.53;;;22.99;33.52
6096;BME280;25081;42.698;23.298;2023-04-24T07:33:12;94912.93;;;22.70;32.65
6096;BME280;25081;42.698;23.298;2023-04-24T07:35:23;94917.38;;;22.06;35.20
6096;BME280;25081;42.698;23.298;2023-04-24T07:37:33;94909.61;;;23.37;32.52
6096;BME280;25081;42.698;23.298;2023-04-24T07:39:44;94914.19;;;22.62;33.25
6096;BME280;25081;42.698;23.298;2023-04-24T07:41:54;94914.66;;;22.77;33.85
6096;BME280;25081;42.698;23.298;2023-04-24T07:44:05;94917.20;;;22.00;33.99
6096;BME280;25081;42.698;23.298;2023-04-24T07:46:16;94913.43;;;21.12;36.08
6096;BME280;25081;42.698;23.298;2023-04-24T07:48:27;94903.70;;;22.82;33.81
6096;BME280;25081;42.698;23.298;2023-04-24T07:50:37;94902.98;;;24.59;31.31
6096;BME280;25081;42.698;23.298;2023-04-24T07:52:48;94896.27;;;25.48;29.33
6096;BME280;25081;42.698;23.298;2023-04-24T07:54:59;94900.69;;;25.89;29.04
6096;BME280;25081;42.698;23.298;2023-04-24T07:57:09;94896.52;;;23.73;31.64
6096;BME280;25081;42.698;23.298;2023-04-24T07:59:20;94891.16;;;24.63;29.96
6096;BME280;25081;42.698;23.298;2023-04-24T08:01:30;94893.70;;;25.43;29.03
6096;BME280;25081;42.698;23.298;2023-04-24T08:03:41;94894.33;;;25.57;28.46
6096;BME280;25081;42.698;23.298;2023-04-24T08:05:52;94889.52;;;26.20;28.04
6096;BME280;25081;42.698;23.298;2023-04-24T08:08:02;94888.86;;;26.56;27.93
6096;BME280;25081;42.698;23.298;2023-04-24T08:10:13;94886.31;;;27.45;26.93
6096;BME280;25081;42.698;23.298;2023-04-24T08:12:23;94886.87;;;27.03;27.82
6096;BME280;25081;42.698;23.298;2023-04-24T08:14:34;94879.63;;;26.22;27.72
6096;BME280;25081;42.698;23.298;2023-04-24T08:16:44;94874.52;;;26.59;27.86
6096;BME280;25081;42.698;23.298;2023-04-24T08:18:55;94871.44;;;27.19;27.62
6096;BME280;25081;42.698;23.298;2023-04-24T08:21:06;94865.39;;;27.88;26.37
6096;BME280;25081;42.698;23.298;2023-04-24T08:23:17;94866.85;;;28.25;25.41
6096;BME280;25081;42.698;23.298;2023-04-24T08:25:27;94870.17;;;28.24;25.86
6096;BME280;25081;42.698;23.298;2023-04-24T08:27:38;94875.09;;;22.60;32.04
6096;BME280;25081;42.698;23.298;2023-04-24T08:29:49;94883.05;;;20.75;35.84
6096;BME280;25081;42.698;23.298;2023-04-24T08:31:59;94879.37;;;20.87;36.17
6096;BME280;25081;42.698;23.298;2023-04-24T08:34:10;94874.66;;;20.74;36.77
6096;BME280;25081;42.698;23.298;2023-04-24T08:36:21;94865.92;;;22.28;35.63
6096;BME280;25081;42.698;23.298;2023-04-24T08:38:31;94866.05;;;24.35;32.36
6096;BME280;25081;42.698;23.298;2023-04-24T08:40:41;94862.23;;;25.02;30.27
6096;BME280;25081;42.698;23.298;2023-04-24T08:42:52;94861.59;;;25.14;30.47
6096;BME280;25081;42.698;23.298;2023-04-24T08:45:03;94848.81;;;25.37;30.30
6096;BME280;25081;42.698;23.298;2023-04-24T08:47:13;94849.16;;;24.73;30.57
6096;BME280;25081;42.698;23.298;2023-04-24T08:49:24;94846.83;;;25.32;30.05
6096;BME280;25081;42.698;23.298;2023-04-24T08:51:34;94834.32;;;26.36;28.82
6096;BME280;25081;42.698;23.298;2023-04-24T08:53:45;94841.45;;;25.03;29.83
6096;BME280;25081;42.698;23.298;2023-04-24T08:55:56;94842.58;;;22.69;33.81
6096;BME280;25081;42.698;23.298;2023-04-24T08:58:06;94833.62;;;24.82;30.59
6096;BME280;25081;42.698;23.298;2023-04-24T09:00:19;94823.22;;;26.32;28.54
6096;BME280;25081;42.698;23.298;2023-04-24T09:02:29;94818.02;;;26.63;27.81
6096;BME280;25081;42.698;23.298;2023-04-24T09:04:40;94827.51;;;24.28;30.80
6096;BME280;25081;42.698;23.298;2023-04-24T09:06:50;94824.35;;;22.69;33.66
6096;BME280;25081;42.698;23.298;2023-04-24T09:09:02;94823.56;;;22.80;34.45
6096;BME280;25081;42.698;23.298;2023-04-24T09:11:12;94817.64;;;24.87;31.73
6096;BME280;25081;42.698;23.298;2023-04-24T09:13:22;94807.84;;;25.63;29.98
6096;BME280;25081;42.698;23.298;2023-04-24T09:15:33;94800.82;;;26.24;29.80
6096;BME280;25081;42.698;23.298;2023-04-24T09:17:44;94802.00;;;23.95;31.79
6096;BME280;25081;42.698;23.298;2023-04-24T09:19:54;94819.41;;;19.55;39.31
6096;BME280;25081;42.698;23.298;2023-04-24T09:22:06;94820.07;;;19.73;39.60
6096;BME280;25081;42.698;23.298;2023-04-24T09:24:17;94810.77;;;20.06;38.88
6096;BME280;25081;42.698;23.298;2023-04-24T09:26:30;94802.81;;;21.63;36.87
6096;BME280;25081;42.698;23.298;2023-04-24T09:28:42;94789.38;;;22.40;35.06
6096;BME280;25081;42.698;23.298;2023-04-24T09:31:06;94795.36;;;21.03;36.95
6096;BME280;25081;42.698;23.298;2023-04-24T09:33:16;94792.24;;;22.57;35.35
6096;BME280;25081;42.698;23.298;2023-04-24T09:35:27;94789.36;;;22.65;33.22
6096;BME280;25081;42.698;23.298;2023-04-24T09:37:39;94781.98;;;24.28;31.48
6096;BME280;25081;42.698;23.298;2023-04-24T09:39:56;94778.52;;;24.91;30.39
6096;BME280;25081;42.698;23.298;2023-04-24T09:42:08;94782.73;;;24.51;30.66
6096;BME280;25081;42.698;23.298;2023-04-24T09:44:19;94776.64;;;24.06;31.32
6096;BME280;25081;42.698;23.298;2023-04-24T09:46:33;94781.16;;;24.94;31.16
6096;BME280;25081;42.698;23.298;2023-04-24T09:48:43;94779.06;;;25.34;30.02
6096;BME280;25081;42.698;23.298;2023-04-24T09:50:54;94776.42;;;24.71;30.90
6096;BME280;25081;42.698;23.298;2023-04-24T09:53:05;94774.89;;;24.76;29.55
6096;BME280;25081;42.698;23.298;2023-04-24T09:55:18;94785.45;;;24.51;30.16
6096;BME280;25081;42.698;23.298;2023-04-24T09:57:27;94773.38;;;23.11;32.49
6096;BME280;25081;42.698;23.298;2023-04-24T09:59:39;94768.52;;;23.75;32.21
6096;BME280;25081;42.698;23.298;2023-04-24T10:01:50;94769.46;;;23.48;32.29
6096;BME280;25081;42.698;23.298;2023-04-24T10:04:00;94769.38;;;22.97;32.49
6096;BME280;25081;42.698;23.298;2023-04-24T10:06:13;94764.03;;;22.04;33.93
6096;BME280;25081;42.698;23.298;2023-04-24T10:08:21;94758.11;;;22.02;34.75
6096;BME280;25081;42.698;23.298;2023-04-24T10:10:33;94754.83;;;21.88;34.57
6096;BME280;25081;42.698;23.298;2023-04-24T10:12:43;94747.41;;;23.16;32.77
6096;BME280;25081;42.698;23.298;2023-04-24T10:14:54;94736.09;;;25.05;29.96
6096;BME280;25081;42.698;23.298;2023-04-24T10:17:04;94733.09;;;24.78;29.46
6096;BME280;25081;42.698;23.298;2023-04-24T10:19:15;94727.56;;;24.46;31.25
6096;BME280;25081;42.698;23.298;2023-04-24T10:21:25;94728.04;;;25.17;29.35
6096;BME280;25081;42.698;23.298;2023-04-24T10:23:36;94716.17;;;26.15;28.47
6096;BME280;25081;42.698;23.298;2023-04-24T10:25:46;94715.94;;;27.06;27.47
6096;BME280;25081;42.698;23.298;2023-04-24T10:27:58;94713.44;;;27.47;26.90
6096;BME280;25081;42.698;23.298;2023-04-24T10:30:10;94706.63;;;27.20;26.34
6096;BME280;25081;42.698;23.298;2023-04-24T10:32:21;94713.36;;;25.16;28.24
6096;BME280;25081;42.698;23.298;2023-04-24T10:34:31;94712.73;;;24.84;29.56
6096;BME280;25081;42.698;23.298;2023-04-24T10:36:47;94706.54;;;24.38;30.00
6096;BME280;25081;42.698;23.298;2023-04-24T10:38:53;94707.12;;;22.84;33.36
6096;BME280;25081;42.698;23.298;2023-04-24T10:41:10;94710.53;;;23.01;36.46
6096;BME280;25081;42.698;23.298;2023-04-24T10:43:20;94702.53;;;22.71;33.26
6096;BME280;25081;42.698;23.298;2023-04-24T10:45:31;94704.23;;;21.67;34.24
6096;BME280;25081;42.698;23.298;2023-04-24T10:47:42;94700.72;;;22.19;34.43
6096;BME280;25081;42.698;23.298;2023-04-24T10:49:52;94701.83;;;22.43;35.11
6096;BME280;25081;42.698;23.298;2023-04-24T10:52:03;94704.80;;;22.55;33.54
6096;BME280;25081;42.698;23.298;2023-04-24T10:54:27;94694.95;;;22.10;33.98
6096;BME280;25081;42.698;23.298;2023-04-24T10:56:37;94688.63;;;22.14;34.33
6096;BME280;25081;42.698;23.298;2023-04-24T10:58:50;94690.31;;;21.58;35.04
6096;BME280;25081;42.698;23.298;2023-04-24T11:01:00;94701.76;;;21.68;36.62
6096;BME280;25081;42.698;23.298;2023-04-24T11:03:23;94695.75;;;21.71;34.95
6096;BME280;25081;42.698;23.298;2023-04-24T11:05:55;94696.34;;;21.25;36.04
6096;BME280;25081;42.698;23.298;2023-04-24T11:08:13;94705.52;;;20.05;37.94
6096;BME280;25081;42.698;23.298;2023-04-24T11:10:33;94705.87;;;20.38;38.19
6096;BME280;25081;42.698;23.298;2023-04-24T11:12:43;94698.00;;;19.80;38.65
6096;BME280;25081;42.698;23.298;2023-04-24T11:15:04;94703.37;;;19.59;40.13
6096;BME280;25081;42.698;23.298;2023-04-24T11:17:26;94706.69;;;19.98;39.25
6096;BME280;25081;42.698;23.298;2023-04-24T11:19:34;94708.69;;;19.90;38.96
6096;BME280;25081;42.698;23.298;2023-04-24T11:21:47;94725.35;;;19.76;40.91
6096;BME280;25081;42.698;23.298;2023-04-24T11:23:56;94746.30;;;19.12;44.72
6096;BME280;25081;42.698;23.298;2023-04-24T11:26:17;94769.61;;;18.20;55.45
6096;BME280;25081;42.698;23.298;2023-04-24T11:28:24;94758.61;;;16.88;59.38
6096;BME280;25081;42.698;23.298;2023-04-24T11:30:34;94758.61;;;16.88;59.38
6096;BME280;25081;42.698;23.298;2023-04-24T11:32:47;94737.97;;;18.30;60.70
6096;BME280;25081;42.698;23.298;2023-04-24T11:34:56;94737.97;;;18.30;60.70